sensor_id;sensor_type;location;lat;lon;timestamp;pressure;altitude;pressure_sealevel;temperature;humidity
60337;BME280;46978;50.288;28.624;2023-08-24T00:00:19;99180.14;;;12.76;94.58
60337;BME280;46978;50.288;28.624;2023-08-24T00:01:20;99180.14;;;12.76;94.74
60337;BME280;46978;50.288;28.624;2023-08-24T00:02:22;99183.66;;;12.75;94.75
60337;BME280;46978;50.288;28.624;2023-08-24T00:03:24;99182.79;;;12.74;94.86
60337;BME280;46978;50.288;28.624;2023-08-24T00:04:25;99187.20;;;12.72;94.43
60337;BME280;46978;50.288;28.624;2023-08-24T00:05:27;99182.88;;;12.71;94.19
60337;BME280;46978;50.288;28.624;2023-08-24T00:06:29;99182.08;;;12.69;94.27
60337;BME280;46978;50.288;28.624;2023-08-24T00:07:31;99186.45;;;12.69;93.86
60337;BME280;46978;50.288;28.624;2023-08-24T00:08:32;99178.73;;;12.66;93.92
60337;BME280;46978;50.288;28.624;2023-08-24T00:09:34;99180.45;;;12.65;94.40
60337;BME280;46978;50.288;28.624;2023-08-24T00:10:36;99183.11;;;12.64;94.44
60337;BME280;46978;50.288;28.624;2023-08-24T00:11:38;99187.47;;;12.63;94.12
60337;BME280;46978;50.288;28.624;2023-08-24T00:12:41;99192.72;;;12.62;94.21
60337;BME280;46978;50.288;28.624;2023-08-24T00:13:43;99188.41;;;12.61;94.21
60337;BME280;46978;50.288;28.624;2023-08-24T00:14:45;99184.95;;;12.60;94.51
60337;BME280;46978;50.288;28.624;2023-08-24T00:15:47;99188.41;;;12.61;95.03
60337;BME280;46978;50.288;28.624;2023-08-24T00:16:48;99181.56;;;12.58;95.20
60337;BME280;46978;50.288;28.624;2023-08-24T00:17:50;99192.81;;;12.59;94.95
60337;BME280;46978;50.288;28.624;2023-08-24T00:18:52;99195.55;;;12.54;93.96
60337;BME280;46978;50.288;28.624;2023-08-24T00:19:53;99194.75;;;12.52;93.40
60337;BME280;46978;50.288;28.624;2023-08-24T00:20:55;99195.64;;;12.51;94.44
60337;BME280;46978;50.288;28.624;2023-08-24T00:21:57;99193.92;;;12.50;94.69
60337;BME280;46978;50.288;28.624;2023-08-24T00:22:59;99192.23;;;12.49;95.16
60337;BME280;46978;50.288;28.624;2023-08-24T00:24:01;99191.36;;;12.48;95.28
60337;BME280;46978;50.288;28.624;2023-08-24T00:25:03;99191.41;;;12.47;95.69
60337;BME280;46978;50.288;28.624;2023-08-24T00:26:05;99185.31;;;12.48;95.40
60337;BME280;46978;50.288;28.624;2023-08-24T00:27:06;99194.88;;;12.47;95.26
60337;BME280;46978;50.288;28.624;2023-08-24T00:28:08;99189.67;;;12.47;95.27
60337;BME280;46978;50.288;28.624;2023-08-24T00:29:10;99187.96;;;12.46;94.51
60337;BME280;46978;50.288;28.624;2023-08-24T00:30:12;99190.65;;;12.43;93.91
60337;BME280;46978;50.288;28.624;2023-08-24T00:31:15;99187.20;;;12.43;94.14
60337;BME280;46978;50.288;28.624;2023-08-24T00:32:17;99200.27;;;12.41;94.56
60337;BME280;46978;50.288;28.624;2023-08-24T00:33:19;99193.30;;;12.42;94.88
60337;BME280;46978;50.288;28.624;2023-08-24T00:34:20;99189.85;;;12.41;95.07
60337;BME280;46978;50.288;28.624;2023-08-24T00:35:22;99194.19;;;12.41;95.46
60337;BME280;46978;50.288;28.624;2023-08-24T00:36:24;99192.50;;;12.40;96.29
60337;BME280;46978;50.288;28.624;2023-08-24T00:37:26;99193.34;;;12.40;96.40
60337;BME280;46978;50.288;28.624;2023-08-24T00:38:28;99195.14;;;12.38;96.28
60337;BME280;46978;50.288;28.624;2023-08-24T00:39:29;99192.50;;;12.40;97.08
60337;BME280;46978;50.288;28.624;2023-08-24T00:40:31;99194.22;;;12.39;96.94
60337;BME280;46978;50.288;28.624;2023-08-24T00:41:33;99189.11;;;12.36;96.06
60337;BME280;46978;50.288;28.624;2023-08-24T00:42:40;99195.19;;;12.36;96.30
60337;BME280;46978;50.288;28.624;2023-08-24T00:43:42;99196.91;;;12.36;96.80
60337;BME280;46978;50.288;28.624;2023-08-24T00:44:43;99194.31;;;12.36;96.83
60337;BME280;46978;50.288;28.624;2023-08-24T00:45:45;99195.19;;;12.36;96.88
60337;BME280;46978;50.288;28.624;2023-08-24T00:46:47;99197.78;;;12.36;96.89
60337;BME280;46978;50.288;28.624;2023-08-24T00:47:49;99196.88;;;12.37;97.58
60337;BME280;46978;50.288;28.624;2023-08-24T00:48:51;99204.67;;;12.37;97.80
60337;BME280;46978;50.288;28.624;2023-08-24T00:49:53;99202.99;;;12.36;97.79
60337;BME280;46978;50.288;28.624;2023-08-24T00:51:01;99201.27;;;12.35;97.73
60337;BME280;46978;50.288;28.624;2023-08-24T00:52:03;99199.55;;;12.34;97.59
60337;BME280;46978;50.288;28.624;2023-08-24T00:53:05;99200.48;;;12.33;97.70
60337;BME280;46978;50.288;28.624;2023-08-24T00:54:08;99197.91;;;12.32;97.70
60337;BME280;46978;50.288;28.624;2023-08-24T00:55:10;99203.16;;;12.30;97.65
60337;BME280;46978;50.288;28.624;2023-08-24T00:56:12;99200.56;;;12.30;97.79
60337;BME280;46978;50.288;28.624;2023-08-24T00:57:14;99198.05;;;12.27;97.88
60337;BME280;46978;50.288;28.624;2023-08-24T00:58:17;99203.25;;;12.27;97.92
60337;BME280;46978;50.288;28.624;2023-08-24T00:59:18;99202.41;;;12.25;97.92
60337;BME280;46978;50.288;28.624;2023-08-24T01:00:20;99198.13;;;12.24;97.99
60337;BME280;46978;50.288;28.624;2023-08-24T01:01:23;99209.42;;;12.23;97.84
60337;BME280;46978;50.288;28.624;2023-08-24T01:02:25;99202.45;;;12.24;97.89
60337;BME280;46978;50.288;28.624;2023-08-24T01:03:27;99199.02;;;12.23;97.87
60337;BME280;46978;50.288;28.624;2023-08-24T01:04:29;99195.57;;;12.23;97.98
60337;BME280;46978;50.288;28.624;2023-08-24T01:05:30;99194.70;;;12.22;97.88
60337;BME280;46978;50.288;28.624;2023-08-24T01:06:32;99193.81;;;12.23;97.92
60337;BME280;46978;50.288;28.624;2023-08-24T01:07:36;99194.70;;;12.22;98.14
60337;BME280;46978;50.288;28.624;2023-08-24T01:08:39;99195.57;;;12.23;98.12
60337;BME280;46978;50.288;28.624;2023-08-24T01:09:41;99197.30;;;12.22;98.04
60337;BME280;46978;50.288;28.624;2023-08-24T01:11:02;99197.30;;;12.22;97.81
60337;BME280;46978;50.288;28.624;2023-08-24T01:13:21;99190.37;;;12.23;97.56
60337;BME280;46978;50.288;28.624;2023-08-24T01:15:54;99194.70;;;12.22;97.60
60337;BME280;46978;50.288;28.624;2023-08-24T01:16:58;99194.73;;;12.20;97.60
60337;BME280;46978;50.288;28.624;2023-08-24T01:18:04;99198.22;;;12.21;97.96
60337;BME280;46978;50.288;28.624;2023-08-24T01:19:07;99195.61;;;12.21;98.31
60337;BME280;46978;50.288;28.624;2023-08-24T01:20:11;99199.09;;;12.20;98.53
60337;BME280;46978;50.288;28.624;2023-08-24T01:21:15;99194.78;;;12.19;98.40
60337;BME280;46978;50.288;28.624;2023-08-24T01:22:37;99199.14;;;12.18;98.42
60337;BME280;46978;50.288;28.624;2023-08-24T01:24:51;99195.78;;;12.15;98.68
60337;BME280;46978;50.288;28.624;2023-08-24T01:26:14;99204.47;;;12.14;98.65
60337;BME280;46978;50.288;28.624;2023-08-24T01:27:16;99202.79;;;12.11;98.80
60337;BME280;46978;50.288;28.624;2023-08-24T01:28:20;99200.31;;;12.07;98.92
60337;BME280;46978;50.288;28.624;2023-08-24T01:29:22;99203.00;;;12.04;99.16
60337;BME280;46978;50.288;28.624;2023-08-24T01:30:24;99201.39;;;11.99;99.21
60337;BME280;46978;50.288;28.624;2023-08-24T01:31:26;99203.16;;;11.97;99.28
60337;BME280;46978;50.288;28.624;2023-08-24T01:32:32;99197.16;;;11.95;99.32
60337;BME280;46978;50.288;28.624;2023-08-24T01:33:34;99199.80;;;11.94;99.47
60337;BME280;46978;50.288;28.624;2023-08-24T01:34:37;99192.87;;;11.93;99.75
60337;BME280;46978;50.288;28.624;2023-08-24T01:35:40;99192.87;;;11.93;99.75
60337;BME280;46978;50.288;28.624;2023-08-24T01:36:43;99199.84;;;11.92;99.17
60337;BME280;46978;50.288;28.624;2023-08-24T01:37:45;99192.84;;;11.94;98.98
60337;BME280;46978;50.288;28.624;2023-08-24T01:38:52;99195.44;;;11.94;98.80
60337;BME280;46978;50.288;28.624;2023-08-24T01:40:17;99196.31;;;11.95;98.71
60337;BME280;46978;50.288;28.624;2023-08-24T01:41:24;99192.80;;;11.96;98.95
60337;BME280;46978;50.288;28.624;2023-08-24T01:42:28;99193.67;;;11.96;98.67
60337;BME280;46978;50.288;28.624;2023-08-24T01:43:32;99184.95;;;11.97;98.75
60337;BME280;46978;50.288;28.624;2023-08-24T01:44:38;99183.27;;;11.96;98.69
60337;BME280;46978;50.288;28.624;2023-08-24T01:45:41;99191.91;;;11.97;98.51
60337;BME280;46978;50.288;28.624;2023-08-24T01:46:46;99191.91;;;11.97;98.63
60337;BME280;46978;50.288;28.624;2023-08-24T01:47:50;99192.80;;;11.96;98.61
60337;BME280;46978;50.288;28.624;2023-08-24T01:48:54;99190.20;;;11.96;98.77
60337;BME280;46978;50.288;28.624;2023-08-24T01:49:57;99191.11;;;11.95;98.60
60337;BME280;46978;50.288;28.624;2023-08-24T01:51:00;99188.52;;;11.95;98.58
60337;BME280;46978;50.288;28.624;2023-08-24T01:52:02;99192.03;;;11.92;98.28
60337;BME280;46978;50.288;28.624;2023-08-24T01:53:05;99192.03;;;11.92;98.47
60337;BME280;46978;50.288;28.624;2023-08-24T01:54:07;99192.03;;;11.92;98.56
60337;BME280;46978;50.288;28.624;2023-08-24T01:55:08;99187.69;;;11.91;98.61
60337;BME280;46978;50.288;28.624;2023-08-24T01:56:11;99188.60;;;11.90;98.52
60337;BME280;46978;50.288;28.624;2023-08-24T01:57:13;99186.05;;;11.89;98.46
60337;BME280;46978;50.288;28.624;2023-08-24T01:58:15;99188.69;;;11.87;98.58
60337;BME280;46978;50.288;28.624;2023-08-24T01:59:17;99185.28;;;11.85;98.73
60337;BME280;46978;50.288;28.624;2023-08-24T02:00:19;99191.36;;;11.84;98.86
60337;BME280;46978;50.288;28.624;2023-08-24T02:01:20;99191.36;;;11.84;98.99
60337;BME280;46978;50.288;28.624;2023-08-24T02:02:23;99187.05;;;11.83;99.02
60337;BME280;46978;50.288;28.624;2023-08-24T02:03:25;99188.84;;;11.81;98.82
60337;BME280;46978;50.288;28.624;2023-08-24T02:04:27;99188.84;;;11.81;98.65
60337;BME280;46978;50.288;28.624;2023-08-24T02:05:28;99189.72;;;11.80;98.67
60337;BME280;46978;50.288;28.624;2023-08-24T02:06:30;99191.52;;;11.78;98.74
60337;BME280;46978;50.288;28.624;2023-08-24T02:07:32;99187.20;;;11.77;98.67
60337;BME280;46978;50.288;28.624;2023-08-24T02:08:34;99195.00;;;11.77;98.55
60337;BME280;46978;50.288;28.624;2023-08-24T02:09:36;99200.24;;;11.75;98.58
60337;BME280;46978;50.288;28.624;2023-08-24T02:10:37;99195.95;;;11.74;98.88
60337;BME280;46978;50.288;28.624;2023-08-24T02:11:39;99192.48;;;11.74;99.09
60337;BME280;46978;50.288;28.624;2023-08-24T02:12:40;99197.68;;;11.74;98.98
60337;BME280;46978;50.288;28.624;2023-08-24T02:13:42;99197.72;;;11.72;98.87
60337;BME280;46978;50.288;28.624;2023-08-24T02:14:44;99201.19;;;11.73;98.90
60337;BME280;46978;50.288;28.624;2023-08-24T02:15:45;99196.88;;;11.72;98.84
60337;BME280;46978;50.288;28.624;2023-08-24T02:16:47;99196.88;;;11.72;98.99
60337;BME280;46978;50.288;28.624;2023-08-24T02:17:49;99198.67;;;11.70;99.00
60337;BME280;46978;50.288;28.624;2023-08-24T02:18:50;99201.27;;;11.70;99.10
60337;BME280;46978;50.288;28.624;2023-08-24T02:19:52;99196.95;;;11.69;99.06
60337;BME280;46978;50.288;28.624;2023-08-24T02:20:54;99198.71;;;11.68;99.15
60337;BME280;46978;50.288;28.624;2023-08-24T02:21:55;99196.19;;;11.65;99.02
60337;BME280;46978;50.288;28.624;2023-08-24T02:22:57;99178.00;;;11.65;98.90
60337;BME280;46978;50.288;28.624;2023-08-24T02:23:59;99195.35;;;11.63;99.04
60337;BME280;46978;50.288;28.624;2023-08-24T02:25:01;99193.66;;;11.62;98.66
60337;BME280;46978;50.288;28.624;2023-08-24T02:26:02;99197.99;;;11.61;99.11
60337;BME280;46978;50.288;28.624;2023-08-24T02:27:04;99198.91;;;11.60;99.21
60337;BME280;46978;50.288;28.624;2023-08-24T02:28:06;99203.23;;;11.60;99.27
60337;BME280;46978;50.288;28.624;2023-08-24T02:29:08;99195.43;;;11.60;99.33
60337;BME280;46978;50.288;28.624;2023-08-24T02:30:11;99193.70;;;11.60;99.43
60337;BME280;46978;50.288;28.624;2023-08-24T02:31:12;99197.19;;;11.59;99.49
60337;BME280;46978;50.288;28.624;2023-08-24T02:32:14;99200.66;;;11.58;99.32
60337;BME280;46978;50.288;28.624;2023-08-24T02:33:16;99196.42;;;11.56;99.51
60337;BME280;46978;50.288;28.624;2023-08-24T02:34:18;99200.74;;;11.55;99.42
60337;BME280;46978;50.288;28.624;2023-08-24T02:35:20;99198.18;;;11.54;99.52
60337;BME280;46978;50.288;28.624;2023-08-24T02:36:21;99196.53;;;11.51;99.46
60337;BME280;46978;50.288;28.624;2023-08-24T02:37:23;99193.09;;;11.49;99.16
60337;BME280;46978;50.288;28.624;2023-08-24T02:38:25;99190.54;;;11.47;99.24
60337;BME280;46978;50.288;28.624;2023-08-24T02:39:27;99194.92;;;11.45;98.96
60337;BME280;46978;50.288;28.624;2023-08-24T02:40:29;99194.09;;;11.45;99.14
60337;BME280;46978;50.288;28.624;2023-08-24T02:41:30;99192.41;;;11.42;98.71
60337;BME280;46978;50.288;28.624;2023-08-24T02:42:33;99190.69;;;11.41;98.88
60337;BME280;46978;50.288;28.624;2023-08-24T02:43:35;99194.23;;;11.39;99.20
60337;BME280;46978;50.288;28.624;2023-08-24T02:44:36;99198.59;;;11.37;99.52
60337;BME280;46978;50.288;28.624;2023-08-24T02:45:38;99202.10;;;11.36;99.45
60337;BME280;46978;50.288;28.624;2023-08-24T02:46:40;99190.88;;;11.34;99.52
60337;BME280;46978;50.288;28.624;2023-08-24T02:47:41;99187.43;;;11.33;99.72
60337;BME280;46978;50.288;28.624;2023-08-24T02:48:43;99191.78;;;11.33;99.61
60337;BME280;46978;50.288;28.624;2023-08-24T02:49:44;99193.54;;;11.30;99.85
60337;BME280;46978;50.288;28.624;2023-08-24T02:50:46;99187.54;;;11.28;99.94
60337;BME280;46978;50.288;28.624;2023-08-24T02:51:48;99194.52;;;11.26;99.78
60337;BME280;46978;50.288;28.624;2023-08-24T02:52:50;99192.81;;;11.25;100.00
60337;BME280;46978;50.288;28.624;2023-08-24T02:53:51;99191.13;;;11.23;99.89
60337;BME280;46978;50.288;28.624;2023-08-24T02:54:53;99190.32;;;11.21;99.94
60337;BME280;46978;50.288;28.624;2023-08-24T02:55:55;99193.80;;;11.20;100.00
60337;BME280;46978;50.288;28.624;2023-08-24T02:56:57;99191.23;;;11.18;100.00
60337;BME280;46978;50.288;28.624;2023-08-24T02:57:59;99193.83;;;11.18;100.00
60337;BME280;46978;50.288;28.624;2023-08-24T02:59:01;99188.67;;;11.17;100.00
60337;BME280;46978;50.288;28.624;2023-08-24T03:00:04;99187.83;;;11.16;100.00
60337;BME280;46978;50.288;28.624;2023-08-24T03:01:06;99188.70;;;11.15;100.00
60337;BME280;46978;50.288;28.624;2023-08-24T03:02:08;99189.58;;;11.16;100.00
60337;BME280;46978;50.288;28.624;2023-08-24T03:03:10;99188.70;;;11.15;100.00
60337;BME280;46978;50.288;28.624;2023-08-24T03:04:12;99186.11;;;11.15;100.00
60337;BME280;46978;50.288;28.624;2023-08-24T03:05:13;99185.23;;;11.16;100.00
60337;BME280;46978;50.288;28.624;2023-08-24T03:06:15;99180.08;;;11.15;100.00
60337;BME280;46978;50.288;28.624;2023-08-24T03:07:17;99186.08;;;11.17;100.00
60337;BME280;46978;50.288;28.624;2023-08-24T03:08:18;99184.35;;;11.17;100.00
60337;BME280;46978;50.288;28.624;2023-08-24T03:09:20;99192.14;;;11.17;100.00
60337;BME280;46978;50.288;28.624;2023-08-24T03:10:22;99184.31;;;11.19;100.00
60337;BME280;46978;50.288;28.624;2023-08-24T03:11:23;99184.31;;;11.19;100.00
60337;BME280;46978;50.288;28.624;2023-08-24T03:12:25;99192.08;;;11.20;100.00
60337;BME280;46978;50.288;28.624;2023-08-24T03:13:28;99197.23;;;11.22;100.00
60337;BME280;46978;50.288;28.624;2023-08-24T03:14:30;99186.84;;;11.22;100.00
60337;BME280;46978;50.288;28.624;2023-08-24T03:15:31;99189.44;;;11.22;100.00
60337;BME280;46978;50.288;28.624;2023-08-24T03:16:33;99190.28;;;11.22;100.00
60337;BME280;46978;50.288;28.624;2023-08-24T03:17:35;99194.63;;;11.22;100.00
60337;BME280;46978;50.288;28.624;2023-08-24T03:18:37;99192.91;;;11.21;100.00
60337;BME280;46978;50.288;28.624;2023-08-24T03:19:38;99192.08;;;11.20;100.00
60337;BME280;46978;50.288;28.624;2023-08-24T03:20:40;99187.72;;;11.21;100.00
60337;BME280;46978;50.288;28.624;2023-08-24T03:21:43;99186.88;;;11.20;100.00
60337;BME280;46978;50.288;28.624;2023-08-24T03:22:44;99189.44;;;11.22;100.00
60337;BME280;46978;50.288;28.624;2023-08-24T03:23:46;99189.44;;;11.22;100.00
60337;BME280;46978;50.288;28.624;2023-08-24T03:24:48;99197.23;;;11.22;100.00
60337;BME280;46978;50.288;28.624;2023-08-24T03:25:49;99190.28;;;11.22;100.00
60337;BME280;46978;50.288;28.624;2023-08-24T03:26:51;99196.36;;;11.21;99.47
60337;BME280;46978;50.288;28.624;2023-08-24T03:27:53;99189.44;;;11.22;99.61
60337;BME280;46978;50.288;28.624;2023-08-24T03:28:55;99197.20;;;11.23;99.87
60337;BME280;46978;50.288;28.624;2023-08-24T03:29:56;99199.69;;;11.28;99.81
60337;BME280;46978;50.288;28.624;2023-08-24T03:30:58;99201.30;;;11.32;99.55
60337;BME280;46978;50.288;28.624;2023-08-24T03:31:59;99195.95;;;11.38;99.25
60337;BME280;46978;50.288;28.624;2023-08-24T03:33:01;99202.72;;;11.45;98.99
60337;BME280;46978;50.288;28.624;2023-08-24T03:34:03;99194.81;;;11.50;98.46
60337;BME280;46978;50.288;28.624;2023-08-24T03:35:05;99204.25;;;11.54;97.89
60337;BME280;46978;50.288;28.624;2023-08-24T03:36:07;99204.98;;;11.59;97.34
60337;BME280;46978;50.288;28.624;2023-08-24T03:37:09;99206.55;;;11.66;97.55
60337;BME280;46978;50.288;28.624;2023-08-24T03:38:11;99205.41;;;11.77;97.68
60337;BME280;46978;50.288;28.624;2023-08-24T03:39:12;99204.28;;;11.87;97.10
60337;BME280;46978;50.288;28.624;2023-08-24T03:40:15;99204.03;;;11.98;96.94
60337;BME280;46978;50.288;28.624;2023-08-24T03:41:16;99203.75;;;12.09;96.42
60337;BME280;46978;50.288;28.624;2023-08-24T03:42:18;99206.02;;;12.21;96.19
60337;BME280;46978;50.288;28.624;2023-08-24T03:43:19;99208.28;;;12.33;96.10
60337;BME280;46978;50.288;28.624;2023-08-24T03:44:21;99209.75;;;12.42;95.87
60337;BME280;46978;50.288;28.624;2023-08-24T03:45:23;99214.73;;;12.50;95.75
60337;BME280;46978;50.288;28.624;2023-08-24T03:46:25;99209.45;;;12.53;95.51
60337;BME280;46978;50.288;28.624;2023-08-24T03:47:27;99218.09;;;12.55;95.42
60337;BME280;46978;50.288;28.624;2023-08-24T03:48:28;99218.00;;;12.58;95.34
60337;BME280;46978;50.288;28.624;2023-08-24T03:49:30;99208.16;;;12.68;95.32
60337;BME280;46978;50.288;28.624;2023-08-24T03:50:32;99210.41;;;12.80;94.45
60337;BME280;46978;50.288;28.624;2023-08-24T03:51:33;99207.44;;;12.93;93.87
60337;BME280;46978;50.288;28.624;2023-08-24T03:52:35;99214.03;;;13.04;93.38
60337;BME280;46978;50.288;28.624;2023-08-24T03:53:36;99208.44;;;13.17;92.85
60337;BME280;46978;50.288;28.624;2023-08-24T03:54:38;99212.34;;;13.30;92.54
60337;BME280;46978;50.288;28.624;2023-08-24T03:55:40;99211.09;;;13.43;91.79
60337;BME280;46978;50.288;28.624;2023-08-24T03:56:42;99213.30;;;13.56;90.28
60337;BME280;46978;50.288;28.624;2023-08-24T03:57:44;99218.02;;;13.71;90.43
60337;BME280;46978;50.288;28.624;2023-08-24T03:58:45;99215.78;;;13.86;89.52
60337;BME280;46978;50.288;28.624;2023-08-24T03:59:47;99216.05;;;14.03;89.32
60337;BME280;46978;50.288;28.624;2023-08-24T04:00:49;99211.90;;;14.23;88.92
60337;BME280;46978;50.288;28.624;2023-08-24T04:01:51;99210.34;;;14.42;87.87
60337;BME280;46978;50.288;28.624;2023-08-24T04:02:52;99214.91;;;14.59;86.34
60337;BME280;46978;50.288;28.624;2023-08-24T04:03:54;99209.97;;;14.77;85.52
60337;BME280;46978;50.288;28.624;2023-08-24T04:04:56;99206.65;;;14.95;84.26
60337;BME280;46978;50.288;28.624;2023-08-24T04:05:57;99211.22;;;15.12;83.11
60337;BME280;46978;50.288;28.624;2023-08-24T04:06:59;99209.68;;;15.29;81.95
60337;BME280;46978;50.288;28.624;2023-08-24T04:08:01;99214.36;;;15.42;80.87
60337;BME280;46978;50.288;28.624;2023-08-24T04:09:04;99214.73;;;15.55;80.02
60337;BME280;46978;50.288;28.624;2023-08-24T04:10:08;99210.32;;;15.78;78.60
60337;BME280;46978;50.288;28.624;2023-08-24T04:11:09;99210.32;;;15.78;78.60
60337;BME280;46978;50.288;28.624;2023-08-24T04:12:11;99214.20;;;15.90;78.19
60337;BME280;46978;50.288;28.624;2023-08-24T04:13:13;99213.73;;;16.01;77.52
60337;BME280;46978;50.288;28.624;2023-08-24T04:14:15;99219.35;;;16.12;77.01
60337;BME280;46978;50.288;28.624;2023-08-24T04:15:16;99212.88;;;16.21;76.48
60337;BME280;46978;50.288;28.624;2023-08-24T04:16:18;99212.47;;;16.30;75.95
60337;BME280;46978;50.288;28.624;2023-08-24T04:17:20;99206.90;;;16.38;75.69
60337;BME280;46978;50.288;28.624;2023-08-24T04:18:21;99216.09;;;16.46;75.71
60337;BME280;46978;50.288;28.624;2023-08-24T04:19:23;99212.29;;;16.54;75.52
60337;BME280;46978;50.288;28.624;2023-08-24T04:20:25;99215.40;;;16.62;74.87
60337;BME280;46978;50.288;28.624;2023-08-24T04:21:26;99215.05;;;16.70;74.69
60337;BME280;46978;50.288;28.624;2023-08-24T04:22:28;99218.13;;;16.79;74.82
60337;BME280;46978;50.288;28.624;2023-08-24T04:23:30;99211.26;;;16.96;73.14
60337;BME280;46978;50.288;28.624;2023-08-24T04:24:31;99211.26;;;16.96;73.14
60337;BME280;46978;50.288;28.624;2023-08-24T04:25:33;99208.28;;;17.03;73.21
60337;BME280;46978;50.288;28.624;2023-08-24T04:26:35;99209.63;;;17.12;73.39
60337;BME280;46978;50.288;28.624;2023-08-24T04:27:37;99208.39;;;17.19;71.94
60337;BME280;46978;50.288;28.624;2023-08-24T04:28:39;99217.48;;;17.12;70.36
60337;BME280;46978;50.288;28.624;2023-08-24T04:29:43;99211.62;;;17.07;71.10
60337;BME280;46978;50.288;28.624;2023-08-24T04:30:53;99203.18;;;17.00;70.50
60337;BME280;46978;50.288;28.624;2023-08-24T04:31:52;99209.72;;;16.92;70.58
60337;BME280;46978;50.288;28.624;2023-08-24T04:32:54;99207.36;;;16.85;70.97
60337;BME280;46978;50.288;28.624;2023-08-24T04:33:56;99208.27;;;16.84;71.99
60337;BME280;46978;50.288;28.624;2023-08-24T04:34:57;99207.25;;;16.89;72.38
60337;BME280;46978;50.288;28.624;2023-08-24T04:35:59;99207.80;;;16.95;72.78
60337;BME280;46978;50.288;28.624;2023-08-24T04:37:01;99202.27;;;17.01;72.39
60337;BME280;46978;50.288;28.624;2023-08-24T04:38:03;99203.77;;;17.07;71.35
60337;BME280;46978;50.288;28.624;2023-08-24T04:39:04;99205.44;;;17.08;70.97
60337;BME280;46978;50.288;28.624;2023-08-24T04:40:07;99208.86;;;17.10;70.26
60337;BME280;46978;50.288;28.624;2023-08-24T04:41:09;99205.52;;;17.07;70.70
60337;BME280;46978;50.288;28.624;2023-08-24T04:42:11;99200.05;;;17.11;70.95
60337;BME280;46978;50.288;28.624;2023-08-24T04:43:12;99199.98;;;17.13;70.86
60337;BME280;46978;50.288;28.624;2023-08-24T04:44:14;99205.22;;;17.13;70.44
60337;BME280;46978;50.288;28.624;2023-08-24T04:45:16;99207.00;;;17.12;70.41
60337;BME280;46978;50.288;28.624;2023-08-24T04:46:18;99201.36;;;17.02;69.31
60337;BME280;46978;50.288;28.624;2023-08-24T04:47:19;99210.20;;;17.00;70.10
60337;BME280;46978;50.288;28.624;2023-08-24T04:48:22;99210.48;;;16.94;70.30
60337;BME280;46978;50.288;28.624;2023-08-24T04:49:24;99209.66;;;16.93;70.74
60337;BME280;46978;50.288;28.624;2023-08-24T04:50:26;99203.47;;;16.94;70.80
60337;BME280;46978;50.288;28.624;2023-08-24T04:51:27;99208.64;;;16.96;71.08
60337;BME280;46978;50.288;28.624;2023-08-24T04:52:29;99203.32;;;16.97;71.51
60337;BME280;46978;50.288;28.624;2023-08-24T04:53:31;99201.57;;;16.98;72.05
60337;BME280;46978;50.288;28.624;2023-08-24T04:54:33;99208.42;;;17.00;72.81
60337;BME280;46978;50.288;28.624;2023-08-24T04:55:34;99201.42;;;17.01;72.93
60337;BME280;46978;50.288;28.624;2023-08-24T04:56:36;99206.59;;;17.02;72.98
60337;BME280;46978;50.288;28.624;2023-08-24T04:57:38;99208.28;;;17.03;73.20
60337;BME280;46978;50.288;28.624;2023-08-24T04:58:40;99205.58;;;17.05;73.52
60337;BME280;46978;50.288;28.624;2023-08-24T04:59:41;99202.81;;;17.08;73.84
60337;BME280;46978;50.288;28.624;2023-08-24T05:00:44;99201.76;;;17.12;73.30
60337;BME280;46978;50.288;28.624;2023-08-24T05:01:45;99203.36;;;17.15;73.53
60337;BME280;46978;50.288;28.624;2023-08-24T05:02:47;99205.77;;;17.19;73.33
60337;BME280;46978;50.288;28.624;2023-08-24T05:03:49;99202.08;;;17.24;73.26
60337;BME280;46978;50.288;28.624;2023-08-24T05:04:50;99202.70;;;17.29;72.84
60337;BME280;46978;50.288;28.624;2023-08-24T05:05:52;99194.61;;;17.33;72.66
60337;BME280;46978;50.288;28.624;2023-08-24T05:06:54;99199.55;;;17.39;72.22
60337;BME280;46978;50.288;28.624;2023-08-24T05:07:55;99198.42;;;17.45;71.68
60337;BME280;46978;50.288;28.624;2023-08-24T05:08:57;99202.52;;;17.51;70.40
60337;BME280;46978;50.288;28.624;2023-08-24T05:09:59;99207.62;;;17.54;69.57
60337;BME280;46978;50.288;28.624;2023-08-24T05:11:01;99203.90;;;17.58;69.80
60337;BME280;46978;50.288;28.624;2023-08-24T05:12:03;99194.96;;;17.62;70.01
60337;BME280;46978;50.288;28.624;2023-08-24T05:13:05;99199.91;;;17.68;69.83
60337;BME280;46978;50.288;28.624;2023-08-24T05:14:07;99202.22;;;17.74;69.61
60337;BME280;46978;50.288;28.624;2023-08-24T05:15:09;99208.08;;;17.80;69.55
60337;BME280;46978;50.288;28.624;2023-08-24T05:16:12;99205.22;;;17.84;69.75
60337;BME280;46978;50.288;28.624;2023-08-24T05:17:14;99208.36;;;17.93;68.56
60337;BME280;46978;50.288;28.624;2023-08-24T05:18:16;99208.36;;;17.93;68.56
60337;BME280;46978;50.288;28.624;2023-08-24T05:19:18;99206.34;;;17.98;68.85
60337;BME280;46978;50.288;28.624;2023-08-24T05:20:19;99205.02;;;18.06;69.05
60337;BME280;46978;50.288;28.624;2023-08-24T05:21:21;99208.02;;;18.16;68.88
60337;BME280;46978;50.288;28.624;2023-08-24T05:22:23;99199.81;;;18.22;69.12
60337;BME280;46978;50.288;28.624;2023-08-24T05:23:25;99211.62;;;18.31;68.82
60337;BME280;46978;50.288;28.624;2023-08-24T05:24:26;99208.59;;;18.39;68.70
60337;BME280;46978;50.288;28.624;2023-08-24T05:25:28;99212.49;;;18.48;68.53
60337;BME280;46978;50.288;28.624;2023-08-24T05:26:30;99205.12;;;18.54;67.89
60337;BME280;46978;50.288;28.624;2023-08-24T05:27:32;99205.58;;;18.62;67.74
60337;BME280;46978;50.288;28.624;2023-08-24T05:28:34;99199.83;;;18.72;67.99